Time;durP1;ratioP1;P1;durP2;ratioP2;P2;SDS_P1;SDS_P2;PMS_P1;PMS_P2;Temp;Humidity;BMP_temperature;BMP_pressure;BME280_temperature;BME280_humidity;BME280_pressure;Samples;Min_cycle;Max_cycle;Signal;HPM_P1;HPM_P2
2023/11/30 00:02:32;;;;;;;;;;;;;;;-2.51;100.00;97877.89;67551;1283;1017108;-69
2023/11/30 00:05:34;;;;;;;;;;;;;;;-2.44;100.00;97873.79;67520;1283;1015767;-70
2023/11/30 00:08:37;;;;;;;;;;;;;;;-2.25;100.00;97864.78;67576;1283;1018105;-69
2023/11/30 00:11:39;;;;;;;;;;;;;;;-2.24;100.00;97861.65;67571;1283;1016455;-69
2023/11/30 00:14:42;;;;;;;;;;;;;;;-2.26;100.00;97860.02;67569;1283;1016531;-69
2023/11/30 00:17:44;;;;;;;;;;;;;;;-2.17;100.00;97862.52;67534;1283;1018609;-69
2023/11/30 00:20:47;;;;;;;;;;;;;;;-2.01;100.00;97864.17;67562;1283;1016457;-69
2023/11/30 00:23:50;;;;;;;;;;;;;;;-1.93;100.00;97866.37;67569;1283;1016325;-67
2023/11/30 00:26:52;;;;;;;;;;;;;;;-1.86;100.00;97866.52;67568;1283;1018305;-69
2023/11/30 00:29:55;;;;;;;;;;;;;;;-1.71;100.00;97863.03;67535;1283;1016532;-68
2023/11/30 00:32:57;;;;;;;;;;;;;;;-1.60;100.00;97866.33;67527;1283;1016300;-68
2023/11/30 00:36:00;;;;;;;;;;;;;;;-1.51;100.00;97857.69;67562;1283;1016482;-70
2023/11/30 00:39:03;;;;;;;;;;;;;;;-1.47;100.00;97860.50;67504;1283;1016531;-67
2023/11/30 00:42:06;;;;;;;;;;;;;;;-1.44;100.00;97862.98;67502;1283;1016353;-69
2023/11/30 00:45:08;;;;;;;;;;;;;;;-1.46;100.00;97861.85;67526;1283;1016425;-69
2023/11/30 00:48:11;;;;;;;;;;;;;;;-1.50;100.00;97863.17;67499;1283;1016315;-70
2023/11/30 00:51:13;;;;;;;;;;;;;;;-1.49;100.00;97866.05;67493;1283;1016363;-69
2023/11/30 00:54:16;;;;;;;;;;;;;;;-1.46;100.00;97871.98;67537;1283;1016520;-69
2023/11/30 00:57:19;;;;;;;;;;;;;;;-1.50;100.00;97875.34;67556;1283;1016102;-70
2023/11/30 01:00:21;;;;;;;;;;;;;;;-1.47;100.00;97879.38;67527;1283;1017108;-69
2023/11/30 01:03:24;;;;;;;;;;;;;;;-1.41;100.00;97878.34;67524;1283;1016532;-69
2023/11/30 01:06:26;;;;;;;;;;;;;;;-1.27;100.00;97872.98;67567;1283;1016465;-69
2023/11/30 01:09:29;;;;;;;;;;;;;;;-1.17;100.00;97872.02;67535;1283;1016167;-70
2023/11/30 01:12:33;;;;;;;;;;;;;;;-1.18;100.00;97869.30;67513;1282;1016679;-68
2023/11/30 01:15:36;;;;;;;;;;;;;;;-1.28;100.00;97862.54;67507;1283;1016136;-70
2023/11/30 01:18:38;;;;;;;;;;;;;;;-1.10;100.00;97863.41;67519;1283;1016507;-69
2023/11/30 01:21:41;;;;;;;;;;;;;;;-1.00;100.00;97859.50;67572;1283;1016528;-69
2023/11/30 01:24:43;;;;;;;;;;;;;;;-0.91;100.00;97859.39;67565;1283;1016424;-69
2023/11/30 01:27:46;;;;;;;;;;;;;;;-0.86;100.00;97858.23;67536;1283;1016112;-69
2023/11/30 01:30:49;;;;;;;;;;;;;;;-0.81;100.00;97859.29;67522;1283;1016289;-68
2023/11/30 01:33:51;;;;;;;;;;;;;;;-0.77;100.00;97858.50;67561;1283;1018153;-69
2023/11/30 01:36:54;;;;;;;;;;;;;;;-0.68;100.00;97854.78;67557;1283;1018691;-69
2023/11/30 01:39:56;;;;;;;;;;;;;;;-0.57;100.00;97850.98;67485;1283;1016263;-69
2023/11/30 01:43:00;;;;;;;;;;;;;;;-0.43;100.00;97846.58;67568;1283;1016407;-69
2023/11/30 01:46:03;;;;;;;;;;;;;;;-0.34;100.00;97846.65;67533;1283;1016103;-69
2023/11/30 01:49:07;;;;;;;;;;;;;;;-0.16;100.00;97844.02;67520;1283;1016409;-69
2023/11/30 01:52:09;;;;;;;;;;;;;;;-0.11;100.00;97840.38;67548;1283;1016422;-69
2023/11/30 01:55:12;;;;;;;;;;;;;;;0.03;100.00;97844.07;67491;1283;1016196;-68
2023/11/30 01:58:15;;;;;;;;;;;;;;;0.13;100.00;97835.63;67539;1282;1016780;-68
2023/11/30 02:01:17;;;;;;;;;;;;;;;0.17;100.00;97834.65;67529;1283;1016154;-69
2023/11/30 02:04:20;;;;;;;;;;;;;;;0.27;100.00;97828.96;67534;1283;1016315;-69
2023/11/30 02:07:24;;;;;;;;;;;;;;;0.37;100.00;97823.13;67546;1283;1016502;-69
2023/11/30 02:10:26;;;;;;;;;;;;;;;0.45;100.00;97825.40;67490;1282;1016142;-68
2023/11/30 02:13:29;;;;;;;;;;;;;;;0.59;100.00;97824.90;67531;1283;1016419;-70
2023/11/30 02:16:32;;;;;;;;;;;;;;;0.72;100.00;97822.00;67531;1283;1017755;-69
2023/11/30 02:19:34;;;;;;;;;;;;;;;0.76;100.00;97823.08;67572;1283;1016473;-69
2023/11/30 02:22:37;;;;;;;;;;;;;;;0.85;100.00;97817.92;67527;1283;1018557;-69
2023/11/30 02:25:39;;;;;;;;;;;;;;;0.92;100.00;97817.84;67550;1283;1016356;-69
2023/11/30 02:28:42;;;;;;;;;;;;;;;0.91;100.00;97819.58;67521;1283;1016422;-69
2023/11/30 02:31:45;;;;;;;;;;;;;;;0.98;100.00;97824.14;67562;1283;1016452;-69
2023/11/30 02:34:47;;;;;;;;;;;;;;;1.01;100.00;97821.77;67474;1282;1016600;-69
2023/11/30 02:37:50;;;;;;;;;;;;;;;0.95;100.00;97822.88;67511;1283;1016194;-69
2023/11/30 02:40:52;;;;;;;;;;;;;;;1.02;100.00;97821.76;67533;1283;1016502;-70
2023/11/30 02:43:55;;;;;;;;;;;;;;;1.06;100.00;97825.74;67544;1282;1016398;-68
2023/11/30 02:46:57;;;;;;;;;;;;;;;1.06;100.00;97825.73;67492;1283;1018775;-69
2023/11/30 02:50:00;;;;;;;;;;;;;;;1.11;100.00;97825.88;67543;1283;1016406;-70
2023/11/30 02:53:03;;;;;;;;;;;;;;;1.15;100.00;97825.20;67541;1283;1016469;-69
2023/11/30 02:56:05;;;;;;;;;;;;;;;1.25;100.00;97822.41;67533;1283;1018142;-69
2023/11/30 02:59:08;;;;;;;;;;;;;;;1.36;100.00;97822.31;67497;1283;1015815;-69
2023/11/30 03:02:11;;;;;;;;;;;;;;;1.47;100.00;97818.61;67519;1282;1016552;-66
2023/11/30 03:05:13;;;;;;;;;;;;;;;1.51;100.00;97821.57;67521;1283;1016083;-69
2023/11/30 03:08:16;;;;;;;;;;;;;;;1.46;100.00;97825.89;67517;1282;1016482;-69
2023/11/30 03:11:19;;;;;;;;;;;;;;;1.39;100.00;97832.38;67538;1283;1016341;-67
2023/11/30 03:14:21;;;;;;;;;;;;;;;1.31;100.00;97827.89;67518;1283;1016177;-69
2023/11/30 03:17:24;;;;;;;;;;;;;;;1.35;100.00;97830.98;67503;1283;1016746;-69
2023/11/30 03:20:26;;;;;;;;;;;;;;;1.37;100.00;97829.36;64979;1282;6378910;-69
2023/11/30 03:23:29;;;;;;;;;;;;;;;1.46;100.00;97826.61;67586;1283;1016089;-70
2023/11/30 03:26:31;;;;;;;;;;;;;;;1.60;100.00;97823.44;67495;1283;1016155;-69
2023/11/30 03:29:42;;;;;;;;;;;;;;;1.69;100.00;97824.61;67510;1282;1018209;-69
2023/11/30 03:32:45;;;;;;;;;;;;;;;1.79;100.00;97823.02;67510;1283;1016514;-69
2023/11/30 03:35:50;;;;;;;;;;;;;;;1.87;100.00;97821.64;67475;1282;1018814;-69
2023/11/30 03:38:53;;;;;;;;;;;;;;;1.97;100.00;97822.46;67528;1282;1018872;-69
2023/11/30 03:41:56;;;;;;;;;;;;;;;1.82;100.00;97819.25;67498;1282;1017451;-69
2023/11/30 03:44:59;;;;;;;;;;;;;;;1.85;100.00;97819.99;67509;1283;1016488;-68
2023/11/30 03:48:01;;;;;;;;;;;;;;;1.84;100.00;97819.70;67516;1283;1016415;-70
2023/11/30 03:51:04;;;;;;;;;;;;;;;1.82;100.00;97817.36;67504;1282;1016430;-69
2023/11/30 03:54:06;;;;;;;;;;;;;;;1.83;100.00;97821.14;67484;1283;1016763;-69
2023/11/30 03:57:09;;;;;;;;;;;;;;;1.81;100.00;97824.47;67530;1283;1016564;-69
2023/11/30 04:00:13;;;;;;;;;;;;;;;1.76;100.00;97822.79;67511;1282;1018055;-69
2023/11/30 04:03:16;;;;;;;;;;;;;;;1.81;100.00;97823.45;67518;1283;1016467;-68
2023/11/30 04:06:20;;;;;;;;;;;;;;;1.87;100.00;97822.84;67501;1283;1016404;-69
2023/11/30 04:09:22;;;;;;;;;;;;;;;1.91;100.00;97823.73;67482;1283;1019053;-69
2023/11/30 04:12:25;;;;;;;;;;;;;;;2.03;100.00;97822.70;67548;1283;1016449;-67
2023/11/30 04:15:28;;;;;;;;;;;;;;;2.01;100.00;97821.23;67493;1283;1016190;-70
2023/11/30 04:18:30;;;;;;;;;;;;;;;2.10;100.00;97821.72;67484;1283;1016529;-70
2023/11/30 04:21:33;;;;;;;;;;;;;;;2.16;100.00;97815.60;67508;1282;1016273;-69
2023/11/30 04:24:35;;;;;;;;;;;;;;;1.99;100.00;97814.77;67508;1283;1016441;-69
2023/11/30 04:27:38;;;;;;;;;;;;;;;1.75;100.00;97814.38;67507;1282;1016382;-70
2023/11/30 04:30:41;;;;;;;;;;;;;;;1.62;100.00;97811.83;67507;1282;1018108;-69
2023/11/30 04:33:43;;;;;;;;;;;;;;;1.51;100.00;97812.58;67505;1283;1016357;-70
2023/11/30 04:36:46;;;;;;;;;;;;;;;1.46;100.00;97811.25;67518;1283;1016413;-69
2023/11/30 04:39:48;;;;;;;;;;;;;;;1.39;100.00;97808.95;67474;1282;1016814;-68
2023/11/30 04:42:51;;;;;;;;;;;;;;;1.34;100.00;97810.86;67511;1283;1016376;-69
2023/11/30 04:45:54;;;;;;;;;;;;;;;1.26;100.00;97811.02;67523;1282;1015963;-70
2023/11/30 04:48:56;;;;;;;;;;;;;;;1.19;100.00;97804.40;67479;1283;1016505;-70
2023/11/30 04:51:59;;;;;;;;;;;;;;;1.23;100.00;97803.88;67468;1283;1016538;-70
2023/11/30 04:55:01;;;;;;;;;;;;;;;1.15;100.00;97806.09;67517;1282;1016457;-69
2023/11/30 04:58:04;;;;;;;;;;;;;;;1.11;100.00;97802.82;67462;1283;1016356;-69
2023/11/30 05:01:07;;;;;;;;;;;;;;;1.02;100.00;97800.73;67469;1283;1016603;-70
2023/11/30 05:04:09;;;;;;;;;;;;;;;1.07;100.00;97807.27;67509;1283;1016349;-70
2023/11/30 05:07:12;;;;;;;;;;;;;;;1.04;100.00;97807.57;67455;1282;1016181;-69
2023/11/30 05:10:15;;;;;;;;;;;;;;;1.15;100.00;97806.45;67473;1282;1016435;-68
2023/11/30 05:13:17;;;;;;;;;;;;;;;1.18;100.00;97806.66;67513;1283;1016195;-70
2023/11/30 05:16:20;;;;;;;;;;;;;;;1.17;100.00;97803.98;67538;1282;1016470;-69
2023/11/30 05:19:22;;;;;;;;;;;;;;;1.12;100.00;97797.09;67460;1282;1016379;-68
2023/11/30 05:22:25;;;;;;;;;;;;;;;1.07;100.00;97798.14;67468;1283;1016435;-68
2023/11/30 05:25:28;;;;;;;;;;;;;;;1.08;100.00;97794.48;67514;1283;1016498;-69
2023/11/30 05:28:32;;;;;;;;;;;;;;;1.21;100.00;97794.82;67484;1283;1016390;-68
2023/11/30 05:31:35;;;;;;;;;;;;;;;1.21;100.00;97792.42;67477;1282;1016856;-69
2023/11/30 05:34:37;;;;;;;;;;;;;;;1.35;100.00;97797.55;67508;1282;1016245;-69
2023/11/30 05:37:40;;;;;;;;;;;;;;;1.37;100.00;97801.09;67533;1283;1016490;-69
2023/11/30 05:40:42;;;;;;;;;;;;;;;1.45;100.00;97801.13;67498;1283;1016477;-69
2023/11/30 05:43:45;;;;;;;;;;;;;;;1.39;100.00;97803.27;67504;1282;1016371;-68
2023/11/30 05:46:50;;;;;;;;;;;;;;;1.29;100.00;97805.90;67522;1283;1016482;-69
2023/11/30 05:49:54;;;;;;;;;;;;;;;1.51;100.00;97799.66;67499;1282;1016470;-70
2023/11/30 05:52:56;;;;;;;;;;;;;;;1.54;100.00;97803.33;67517;1283;1016494;-69
2023/11/30 05:55:59;;;;;;;;;;;;;;;1.44;100.00;97807.38;67501;1283;1016460;-69
2023/11/30 05:59:02;;;;;;;;;;;;;;;1.55;100.00;97806.05;67480;1283;1016457;-68
2023/11/30 06:02:05;;;;;;;;;;;;;;;1.66;100.00;97807.52;67505;1282;1016408;-67
2023/11/30 06:05:08;;;;;;;;;;;;;;;1.67;100.00;97811.45;67532;1283;1016448;-70
2023/11/30 06:08:10;;;;;;;;;;;;;;;1.62;100.00;97807.51;67519;1283;1016500;-70
2023/11/30 06:11:13;;;;;;;;;;;;;;;1.56;100.00;97812.39;67488;1283;1016376;-70
2023/11/30 06:14:16;;;;;;;;;;;;;;;1.50;100.00;97816.08;67503;1283;1017543;-69
2023/11/30 06:17:18;;;;;;;;;;;;;;;1.47;100.00;97810.54;67489;1283;1016575;-69
2023/11/30 06:20:21;;;;;;;;;;;;;;;1.47;100.00;97813.45;67535;1282;1016434;-70
2023/11/30 06:23:23;;;;;;;;;;;;;;;1.41;100.00;97814.73;67492;1282;1016297;-69
2023/11/30 06:26:26;;;;;;;;;;;;;;;1.45;100.00;97813.71;67493;1282;1020201;-70
2023/11/30 06:29:29;;;;;;;;;;;;;;;1.51;100.00;97811.23;67521;1283;1016509;-70
2023/11/30 06:32:31;;;;;;;;;;;;;;;1.65;100.00;97808.95;67492;1282;1018664;-70
2023/11/30 06:35:34;;;;;;;;;;;;;;;1.61;100.00;97810.98;67471;1283;1016512;-70
2023/11/30 06:38:36;;;;;;;;;;;;;;;1.62;100.00;97810.40;67534;1282;1016497;-69
2023/11/30 06:41:39;;;;;;;;;;;;;;;1.58;100.00;97813.16;67506;1282;1018805;-70
2023/11/30 06:44:42;;;;;;;;;;;;;;;1.40;100.00;97813.04;67497;1283;1016561;-70
2023/11/30 06:47:44;;;;;;;;;;;;;;;1.53;100.00;97813.56;67499;1283;1015941;-70
2023/11/30 06:50:47;;;;;;;;;;;;;;;1.58;100.00;97816.61;67527;1283;1016408;-69
2023/11/30 06:53:49;;;;;;;;;;;;;;;1.71;100.00;97821.46;67477;1283;1016383;-70
2023/11/30 06:56:52;;;;;;;;;;;;;;;1.72;100.00;97831.90;67477;1283;1016564;-69
2023/11/30 06:59:54;;;;;;;;;;;;;;;1.55;100.00;97839.14;67498;1282;1016172;-70
2023/11/30 07:02:57;;;;;;;;;;;;;;;1.54;100.00;97842.63;67504;1283;1016413;-70
2023/11/30 07:05:59;;;;;;;;;;;;;;;1.63;100.00;97843.30;67493;1282;1016409;-70
2023/11/30 07:09:02;;;;;;;;;;;;;;;1.72;100.00;97844.67;67460;1282;1016821;-70
2023/11/30 07:12:04;;;;;;;;;;;;;;;1.75;100.00;97844.86;67498;1282;1016491;-70
2023/11/30 07:15:07;;;;;;;;;;;;;;;1.76;100.00;97842.46;67495;1282;1016402;-69
2023/11/30 07:18:10;;;;;;;;;;;;;;;1.79;100.00;97836.81;67460;1283;1016466;-70
2023/11/30 07:21:14;;;;;;;;;;;;;;;1.79;100.00;97841.64;67497;1282;1016662;-70
2023/11/30 07:24:16;;;;;;;;;;;;;;;1.83;100.00;97843.88;67469;1282;1017802;-69
2023/11/30 07:27:19;;;;;;;;;;;;;;;1.96;100.00;97846.11;67518;1282;1016484;-70
2023/11/30 07:30:21;;;;;;;;;;;;;;;2.15;100.00;97848.92;67512;1283;1016787;-70
2023/11/30 07:33:24;;;;;;;;;;;;;;;2.27;100.00;97846.70;67482;1283;1015952;-69
2023/11/30 07:36:26;;;;;;;;;;;;;;;2.33;100.00;97842.15;67480;1282;1016452;-69
2023/11/30 07:39:29;;;;;;;;;;;;;;;2.43;100.00;97843.09;67516;1283;1016283;-69
2023/11/30 07:42:32;;;;;;;;;;;;;;;2.36;100.00;97847.70;67500;1282;1016474;-69
2023/11/30 07:45:34;;;;;;;;;;;;;;;2.40;100.00;97851.66;67489;1283;1016305;-70
2023/11/30 07:48:37;;;;;;;;;;;;;;;2.50;100.00;97849.83;67501;1282;1016410;-70
2023/11/30 07:51:39;;;;;;;;;;;;;;;2.55;100.00;97855.69;67512;1283;1018340;-70
2023/11/30 07:54:42;;;;;;;;;;;;;;;2.57;100.00;97853.52;67506;1282;1016400;-70
2023/11/30 07:57:47;;;;;;;;;;;;;;;2.84;100.00;97851.08;67490;1283;1016392;-69
2023/11/30 08:00:50;;;;;;;;;;;;;;;3.09;100.00;97847.04;67532;1282;1016385;-69
2023/11/30 08:03:53;;;;;;;;;;;;;;;3.28;100.00;97843.05;67481;1283;1016419;-70
2023/11/30 08:06:56;;;;;;;;;;;;;;;3.64;100.00;97841.31;67533;1282;1016587;-70
2023/11/30 08:09:58;;;;;;;;;;;;;;;4.13;100.00;97842.02;67522;1282;1015969;-70
2023/11/30 08:13:01;;;;;;;;;;;;;;;4.29;100.00;97840.17;67514;1282;1016420;-69
2023/11/30 08:16:04;;;;;;;;;;;;;;;4.32;100.00;97845.59;67495;1282;1016393;-69
2023/11/30 08:19:06;;;;;;;;;;;;;;;4.26;100.00;97836.55;67512;1282;1016480;-70
2023/11/30 08:22:09;;;;;;;;;;;;;;;4.22;100.00;97838.65;67549;1282;1018999;-69
2023/11/30 08:25:12;;;;;;;;;;;;;;;4.19;100.00;97837.92;67485;1282;1016117;-69
2023/11/30 08:28:16;;;;;;;;;;;;;;;4.37;100.00;97836.68;67509;1283;1016277;-69
2023/11/30 08:31:19;;;;;;;;;;;;;;;4.43;100.00;97835.83;67521;1282;1016274;-69
2023/11/30 08:34:21;;;;;;;;;;;;;;;4.54;100.00;97838.02;67503;1282;1016417;-69
2023/11/30 08:37:24;;;;;;;;;;;;;;;4.68;100.00;97840.80;67495;1283;1016242;-69
2023/11/30 08:40:27;;;;;;;;;;;;;;;4.86;100.00;97842.98;67512;1282;1016737;-70
2023/11/30 08:43:29;;;;;;;;;;;;;;;5.22;100.00;97844.30;67544;1283;1016411;-69
2023/11/30 08:46:32;;;;;;;;;;;;;;;5.58;100.00;97843.02;67500;1282;1016496;-70
2023/11/30 08:49:35;;;;;;;;;;;;;;;5.76;100.00;97843.77;67560;1283;1018610;-70
2023/11/30 08:52:38;;;;;;;;;;;;;;;6.03;100.00;97841.02;67514;1283;1016403;-69
2023/11/30 08:55:40;;;;;;;;;;;;;;;6.35;100.00;97833.80;67497;1282;1016225;-68
2023/11/30 08:58:43;;;;;;;;;;;;;;;6.33;100.00;97834.77;67523;1282;1016408;-69
2023/11/30 09:01:46;;;;;;;;;;;;;;;6.41;100.00;97835.17;67460;1283;1016337;-69
2023/11/30 09:04:48;;;;;;;;;;;;;;;6.34;100.00;97838.85;67529;1283;1018301;-69
2023/11/30 09:07:51;;;;;;;;;;;;;;;6.34;100.00;97835.20;67542;1282;1016431;-68
2023/11/30 09:10:54;;;;;;;;;;;;;;;6.39;100.00;97833.57;67495;1282;1016518;-69
2023/11/30 09:13:56;;;;;;;;;;;;;;;6.40;100.00;97835.21;67491;1283;1016392;-69
2023/11/30 09:17:00;;;;;;;;;;;;;;;6.23;100.00;97836.04;67527;1283;1016611;-69
2023/11/30 09:20:05;;;;;;;;;;;;;;;6.25;100.00;97835.75;67509;1283;1016353;-69
2023/11/30 09:23:09;;;;;;;;;;;;;;;6.25;100.00;97835.40;67503;1283;1016492;-69
2023/11/30 09:26:11;;;;;;;;;;;;;;;6.20;100.00;97832.94;67493;1283;1018218;-69
2023/11/30 09:29:14;;;;;;;;;;;;;;;6.28;100.00;97826.90;67462;1282;1016971;-66
2023/11/30 09:32:17;;;;;;;;;;;;;;;6.32;100.00;97829.59;67516;1283;1016731;-69
2023/11/30 09:35:19;;;;;;;;;;;;;;;6.03;100.00;97831.13;67512;1282;1016610;-68
2023/11/30 09:38:22;;;;;;;;;;;;;;;5.84;100.00;97827.48;67497;1282;1016061;-68
2023/11/30 09:41:25;;;;;;;;;;;;;;;5.72;100.00;97825.39;67518;1283;1016455;-69
2023/11/30 09:44:28;;;;;;;;;;;;;;;5.78;100.00;97824.58;67524;1282;1016171;-68
2023/11/30 09:47:30;;;;;;;;;;;;;;;5.72;100.00;97824.23;67503;1283;1016438;-69
2023/11/30 09:50:33;;;;;;;;;;;;;;;5.87;100.00;97817.29;67522;1283;1016494;-69
2023/11/30 09:53:35;;;;;;;;;;;;;;;6.09;100.00;97811.34;67545;1283;1016523;-69
2023/11/30 09:56:38;;;;;;;;;;;;;;;6.30;100.00;97808.73;67484;1283;1015795;-69
2023/11/30 09:59:45;;;;;;;;;;;;;;;6.37;100.00;97803.99;67539;1282;1016520;-69
2023/11/30 10:02:47;;;;;;;;;;;;;;;6.29;100.00;97799.95;67532;1283;1016514;-69
2023/11/30 10:05:50;;;;;;;;;;;;;;;6.28;100.00;97797.57;67497;1283;1016469;-69
2023/11/30 10:08:53;;;;;;;;;;;;;;;6.23;100.00;97797.30;67485;1282;1016703;-69
2023/11/30 10:11:56;;;;;;;;;;;;;;;6.22;100.00;97790.26;67501;1283;1016243;-70
2023/11/30 10:14:58;;;;;;;;;;;;;;;6.08;100.00;97786.91;67511;1282;1016211;-69
2023/11/30 10:18:01;;;;;;;;;;;;;;;6.07;100.00;97784.23;67526;1283;1016537;-69
2023/11/30 10:21:04;;;;;;;;;;;;;;;6.13;100.00;97779.67;67517;1283;1017616;-68
2023/11/30 10:24:07;;;;;;;;;;;;;;;6.18;100.00;97778.17;67486;1283;1016245;-69
2023/11/30 10:27:10;;;;;;;;;;;;;;;6.24;100.00;97771.06;67506;1282;1016500;-69
2023/11/30 10:30:12;;;;;;;;;;;;;;;6.36;100.00;97769.14;67483;1282;1016127;-69
2023/11/30 10:33:15;;;;;;;;;;;;;;;6.29;100.00;97772.48;67544;1283;1016139;-69
2023/11/30 10:36:18;;;;;;;;;;;;;;;6.38;100.00;97774.04;67531;1283;1016170;-68
2023/11/30 10:39:22;;;;;;;;;;;;;;;6.47;100.00;97769.53;67504;1282;1016496;-69
2023/11/30 10:42:25;;;;;;;;;;;;;;;6.53;100.00;97761.48;67542;1283;1016404;-69
2023/11/30 10:45:28;;;;;;;;;;;;;;;6.66;100.00;97759.46;67554;1282;1016323;-69
2023/11/30 10:48:30;;;;;;;;;;;;;;;6.78;100.00;97759.93;67510;1282;1016391;-68
2023/11/30 10:51:33;;;;;;;;;;;;;;;6.96;100.00;97759.88;67520;1283;1016291;-69
2023/11/30 10:54:36;;;;;;;;;;;;;;;7.00;100.00;97756.15;67538;1283;1016491;-68
2023/11/30 10:57:38;;;;;;;;;;;;;;;6.93;100.00;97757.98;67522;1282;1016385;-69
2023/11/30 11:00:42;;;;;;;;;;;;;;;7.00;100.00;97755.50;67508;1283;1016844;-69
2023/11/30 11:03:51;;;;;;;;;;;;;;;6.82;100.00;97750.83;67517;1282;1016507;-68
2023/11/30 11:06:53;;;;;;;;;;;;;;;6.83;100.00;97748.89;67534;1282;1016329;-69
2023/11/30 11:09:56;;;;;;;;;;;;;;;6.85;100.00;97751.32;67493;1283;1016431;-69
2023/11/30 11:12:59;;;;;;;;;;;;;;;6.84;100.00;97743.27;67495;1282;1017464;-69
2023/11/30 11:16:02;;;;;;;;;;;;;;;6.78;100.00;97739.65;67539;1283;1016546;-69
2023/11/30 11:19:05;;;;;;;;;;;;;;;6.74;100.00;97741.98;67497;1283;1016490;-69
2023/11/30 11:22:10;;;;;;;;;;;;;;;6.67;100.00;97743.59;67510;1283;1016479;-68
2023/11/30 11:25:13;;;;;;;;;;;;;;;6.61;100.00;97743.46;67507;1283;1016439;-69
2023/11/30 11:28:16;;;;;;;;;;;;;;;6.47;100.00;97745.69;67567;1282;1016273;-69
2023/11/30 11:31:19;;;;;;;;;;;;;;;6.46;100.00;97734.82;67520;1283;1016504;-69
2023/11/30 11:34:22;;;;;;;;;;;;;;;6.31;100.00;97735.57;67537;1282;1016263;-69
2023/11/30 11:37:24;;;;;;;;;;;;;;;6.44;100.00;97730.80;67509;1283;1016476;-69
2023/11/30 11:40:27;;;;;;;;;;;;;;;6.50;100.00;97723.98;67515;1283;1015970;-69
2023/11/30 11:43:29;;;;;;;;;;;;;;;6.57;100.00;97721.14;67489;1283;1016394;-69
2023/11/30 11:46:32;;;;;;;;;;;;;;;6.69;100.00;97713.23;67527;1282;1016436;-69
2023/11/30 11:49:35;;;;;;;;;;;;;;;6.91;100.00;97714.83;67550;1283;1017999;-69
2023/11/30 11:52:37;;;;;;;;;;;;;;;7.04;100.00;97714.52;67527;1282;1016411;-69
2023/11/30 11:55:40;;;;;;;;;;;;;;;7.04;100.00;97709.81;67538;1282;1016463;-69
2023/11/30 11:58:43;;;;;;;;;;;;;;;7.25;100.00;97711.94;67532;1283;1016249;-69
2023/11/30 12:01:47;;;;;;;;;;;;;;;7.43;100.00;97712.71;67546;1283;1017326;-69
2023/11/30 12:04:50;;;;;;;;;;;;;;;7.84;100.00;97714.18;67521;1283;1015527;-68
2023/11/30 12:07:52;;;;;;;;;;;;;;;8.13;100.00;97715.15;67559;1283;1016466;-69
2023/11/30 12:10:55;;;;;;;;;;;;;;;8.55;100.00;97708.84;67558;1283;1016578;-69
2023/11/30 12:13:58;;;;;;;;;;;;;;;8.59;100.00;97711.66;67541;1283;1015947;-69
2023/11/30 12:17:01;;;;;;;;;;;;;;;8.65;100.00;97711.58;67552;1283;1016426;-69
2023/11/30 12:20:04;;;;;;;;;;;;;;;9.06;100.00;97705.54;67515;1283;1018455;-69
2023/11/30 12:23:07;;;;;;;;;;;;;;;9.20;100.00;97698.95;67529;1283;1016677;-69
2023/11/30 12:26:10;;;;;;;;;;;;;;;9.36;100.00;97695.52;67493;1282;1016424;-68
2023/11/30 12:29:12;;;;;;;;;;;;;;;9.36;100.00;97698.13;67538;1283;1016386;-69
2023/11/30 12:32:15;;;;;;;;;;;;;;;9.35;100.00;97688.45;67570;1283;1016418;-69
2023/11/30 12:35:17;;;;;;;;;;;;;;;9.24;100.00;97684.16;67508;1283;1016230;-68
2023/11/30 12:38:20;;;;;;;;;;;;;;;8.98;100.00;97681.50;67520;1283;1018905;-69
2023/11/30 12:41:22;;;;;;;;;;;;;;;8.72;100.00;97685.83;67557;1283;1016480;-68
2023/11/30 12:44:25;;;;;;;;;;;;;;;8.61;100.00;97682.25;67557;1283;1016450;-68
2023/11/30 12:47:28;;;;;;;;;;;;;;;8.64;100.00;97679.08;67531;1283;1016631;-69
2023/11/30 12:50:30;;;;;;;;;;;;;;;8.63;100.00;97676.66;67554;1283;1016644;-69
2023/11/30 12:53:33;;;;;;;;;;;;;;;8.67;100.00;97669.63;67554;1281;1016369;-69
2023/11/30 12:56:35;;;;;;;;;;;;;;;8.46;100.00;97668.34;67510;1283;1016232;-69
2023/11/30 12:59:38;;;;;;;;;;;;;;;8.39;100.00;97668.44;67532;1282;1019576;-69
2023/11/30 13:02:43;;;;;;;;;;;;;;;8.35;100.00;97663.66;67488;1283;1016394;-69
2023/11/30 13:05:47;;;;;;;;;;;;;;;8.23;100.00;97660.98;67556;1283;1016318;-69
2023/11/30 13:08:50;;;;;;;;;;;;;;;8.18;100.00;97659.27;67569;1283;1016225;-69
2023/11/30 13:11:53;;;;;;;;;;;;;;;8.19;100.00;97656.98;67585;1283;1016106;-69
2023/11/30 13:14:56;;;;;;;;;;;;;;;8.09;100.00;97653.45;67558;1283;1016334;-68
2023/11/30 13:17:59;;;;;;;;;;;;;;;7.96;100.00;97649.27;67534;1283;1019165;-69
2023/11/30 13:21:01;;;;;;;;;;;;;;;7.70;100.00;97650.90;67518;1283;1016431;-69
2023/11/30 13:24:04;;;;;;;;;;;;;;;7.72;100.00;97651.09;67567;1282;1017114;-69
2023/11/30 13:27:07;;;;;;;;;;;;;;;7.66;100.00;97647.50;67541;1283;1015927;-69
2023/11/30 13:30:10;;;;;;;;;;;;;;;7.51;100.00;97638.42;67520;1283;1018294;-69
2023/11/30 13:33:12;;;;;;;;;;;;;;;7.58;100.00;97638.14;67555;1283;1016303;-68
2023/11/30 13:36:15;;;;;;;;;;;;;;;7.39;100.00;97637.50;67550;1283;1016387;-69
2023/11/30 13:39:17;;;;;;;;;;;;;;;7.26;100.00;97637.30;67510;1282;1016452;-69
2023/11/30 13:42:20;;;;;;;;;;;;;;;7.25;100.00;97632.16;67559;1283;1016041;-69
2023/11/30 13:45:24;;;;;;;;;;;;;;;7.08;100.00;97629.44;67589;1282;1016515;-69
2023/11/30 13:48:27;;;;;;;;;;;;;;;7.08;100.00;97628.91;67574;1283;1016511;-69
2023/11/30 13:51:30;;;;;;;;;;;;;;;7.05;100.00;97626.72;67542;1283;1016272;-69
2023/11/30 13:54:32;;;;;;;;;;;;;;;6.80;100.00;97625.31;67557;1283;1016368;-69
2023/11/30 13:57:35;;;;;;;;;;;;;;;6.68;100.00;97629.92;67525;1282;1016376;-69
2023/11/30 14:00:38;;;;;;;;;;;;;;;6.68;100.00;97633.25;67539;1283;1016406;-69
2023/11/30 14:03:41;;;;;;;;;;;;;;;6.60;100.00;97640.87;67561;1283;1016550;-69
2023/11/30 14:06:43;;;;;;;;;;;;;;;6.62;100.00;97642.81;67500;1282;1016492;-69
2023/11/30 14:09:46;;;;;;;;;;;;;;;6.59;100.00;97644.25;67515;1283;1016378;-68
2023/11/30 14:12:49;;;;;;;;;;;;;;;6.58;100.00;97640.28;67556;1283;1017770;-69
2023/11/30 14:15:51;;;;;;;;;;;;;;;6.48;100.00;97643.71;67547;1283;1016309;-69
2023/11/30 14:18:56;;;;;;;;;;;;;;;6.35;100.00;97649.20;67575;1283;1016282;-69
2023/11/30 14:21:59;;;;;;;;;;;;;;;6.39;100.00;97639.71;67527;1282;1016404;-69
2023/11/30 14:25:02;;;;;;;;;;;;;;;6.37;100.00;97632.94;67540;1283;1016515;-69
2023/11/30 14:28:05;;;;;;;;;;;;;;;6.37;100.00;97630.70;67560;1282;1016486;-67
2023/11/30 14:31:08;;;;;;;;;;;;;;;6.27;100.00;97631.50;67534;1283;1016507;-69
2023/11/30 14:34:11;;;;;;;;;;;;;;;6.06;100.00;97639.52;67589;1283;1016198;-69
2023/11/30 14:37:14;;;;;;;;;;;;;;;5.93;100.00;97635.64;67603;1283;1016488;-69
2023/11/30 14:40:17;;;;;;;;;;;;;;;5.66;100.00;97636.67;67563;1283;1016278;-69
2023/11/30 14:43:20;;;;;;;;;;;;;;;5.52;100.00;97638.93;67568;1282;1016315;-68
2023/11/30 14:46:22;;;;;;;;;;;;;;;5.42;100.00;97636.94;67540;1283;1016363;-68
2023/11/30 14:49:25;;;;;;;;;;;;;;;5.52;100.00;97638.02;67570;1283;1017317;-68
2023/11/30 14:52:28;;;;;;;;;;;;;;;5.36;100.00;97637.61;67531;1283;1016371;-68
2023/11/30 14:55:31;;;;;;;;;;;;;;;5.13;100.00;97642.73;67539;1283;1018791;-69
2023/11/30 14:58:33;;;;;;;;;;;;;;;4.95;100.00;97641.33;67564;1283;1016419;-69
2023/11/30 15:01:36;;;;;;;;;;;;;;;4.89;100.00;97638.24;67552;1283;1016519;-67
2023/11/30 15:04:40;;;;;;;;;;;;;;;4.81;100.00;97636.91;67559;1283;1016520;-69
2023/11/30 15:07:42;;;;;;;;;;;;;;;4.84;100.00;97632.59;67539;1283;1016402;-69
2023/11/30 15:10:48;;;;;;;;;;;;;;;4.90;100.00;97624.13;67577;1283;1016430;-69
2023/11/30 15:13:50;;;;;;;;;;;;;;;4.82;100.00;97623.69;67539;1283;1016299;-69
2023/11/30 15:16:53;;;;;;;;;;;;;;;4.80;100.00;97618.60;67585;1283;1016350;-68
2023/11/30 15:19:56;;;;;;;;;;;;;;;4.55;100.00;97619.14;65015;1282;6366305;-66
2023/11/30 15:22:58;;;;;;;;;;;;;;;4.44;100.00;97626.69;67541;1282;1016848;-69
2023/11/30 15:26:01;;;;;;;;;;;;;;;4.47;100.00;97625.14;67544;1283;1016473;-69